sensor_id;sensor_type;location;lat;lon;timestamp;pressure;altitude;pressure_sealevel;temperature;humidity
59513;BME280;45330;51.634;5.562;2022-07-29T00:00:28;101602.97;;;17.00;63.11
59513;BME280;45330;51.634;5.562;2022-07-29T00:02:53;101596.03;;;16.97;62.87
59513;BME280;45330;51.634;5.562;2022-07-29T00:05:20;101585.69;;;16.89;62.90
59513;BME280;45330;51.634;5.562;2022-07-29T00:07:45;101585.53;;;16.95;63.00
59513;BME280;45330;51.634;5.562;2022-07-29T00:10:11;101597.75;;;16.98;63.04
59513;BME280;45330;51.634;5.562;2022-07-29T00:12:36;101570.78;;;16.88;62.77
59513;BME280;45330;51.634;5.562;2022-07-29T00:15:02;101596.88;;;16.99;62.94
59513;BME280;45330;51.634;5.562;2022-07-29T00:17:28;101587.38;;;16.92;63.16
59513;BME280;45330;51.634;5.562;2022-07-29T00:19:53;101589.91;;;16.96;62.85
59513;BME280;45330;51.634;5.562;2022-07-29T00:22:19;101589.03;;;16.97;62.90
59513;BME280;45330;51.634;5.562;2022-07-29T00:24:44;101573.44;;;16.87;62.68
59513;BME280;45330;51.634;5.562;2022-07-29T00:27:11;101589.03;;;16.96;63.03
59513;BME280;45330;51.634;5.562;2022-07-29T00:29:37;101590.75;;;16.97;62.88
59513;BME280;45330;51.634;5.562;2022-07-29T00:32:02;101574.25;;;16.90;63.48
59513;BME280;45330;51.634;5.562;2022-07-29T00:34:28;101581.13;;;16.97;63.26
59513;BME280;45330;51.634;5.562;2022-07-29T00:37:11;101578.59;;;16.91;63.34
59513;BME280;45330;51.634;5.562;2022-07-29T00:39:37;101578.53;;;16.94;63.59
59513;BME280;45330;51.634;5.562;2022-07-29T00:42:03;101556.91;;;16.80;63.67
59513;BME280;45330;51.634;5.562;2022-07-29T00:44:29;101570.94;;;16.79;63.57
59513;BME280;45330;51.634;5.562;2022-07-29T00:46:55;101588.31;;;16.88;63.68
59513;BME280;45330;51.634;5.562;2022-07-29T00:49:20;101564.94;;;16.74;64.37
59513;BME280;45330;51.634;5.562;2022-07-29T00:51:46;101570.22;;;16.72;64.07
59513;BME280;45330;51.634;5.562;2022-07-29T00:54:12;101572.81;;;16.74;64.01
59513;BME280;45330;51.634;5.562;2022-07-29T00:56:37;101572.81;;;16.74;64.27
59513;BME280;45330;51.634;5.562;2022-07-29T00:59:02;101573.78;;;16.70;63.93
59513;BME280;45330;51.634;5.562;2022-07-29T01:01:28;101578.09;;;16.71;64.23
59513;BME280;45330;51.634;5.562;2022-07-29T01:03:53;101600.66;;;16.83;64.28
59513;BME280;45330;51.634;5.562;2022-07-29T01:06:19;101603.28;;;16.83;64.38
59513;BME280;45330;51.634;5.562;2022-07-29T01:08:47;101617.25;;;16.85;64.10
59513;BME280;45330;51.634;5.562;2022-07-29T01:11:14;101626.84;;;16.89;65.14
59513;BME280;45330;51.634;5.562;2022-07-29T01:13:40;101640.75;;;16.95;65.46
59513;BME280;45330;51.634;5.562;2022-07-29T01:16:11;101645.13;;;16.96;64.70
59513;BME280;45330;51.634;5.562;2022-07-29T01:18:44;101633.03;;;16.85;64.63
59513;BME280;45330;51.634;5.562;2022-07-29T01:21:27;101627.59;;;16.95;64.91
59513;BME280;45330;51.634;5.562;2022-07-29T01:29:30;101607.00;;;16.71;65.96
59513;BME280;45330;51.634;5.562;2022-07-29T01:32:14;101590.59;;;16.59;66.78
59513;BME280;45330;51.634;5.562;2022-07-29T01:34:50;101603.75;;;16.58;68.28
59513;BME280;45330;51.634;5.562;2022-07-29T01:37:21;101583.84;;;16.46;68.85
59513;BME280;45330;51.634;5.562;2022-07-29T01:39:49;101583.00;;;16.45;70.14
59513;BME280;45330;51.634;5.562;2022-07-29T01:47:34;101554.47;;;15.72;74.89
59513;BME280;45330;51.634;5.562;2022-07-29T01:50:06;101550.75;;;15.30;80.58
59513;BME280;45330;51.634;5.562;2022-07-29T01:52:49;101530.38;;;14.85;83.33
59513;BME280;45330;51.634;5.562;2022-07-29T01:55:20;101516.69;;;14.59;87.46
59513;BME280;45330;51.634;5.562;2022-07-29T01:57:48;101529.84;;;14.55;88.91
59513;BME280;45330;51.634;5.562;2022-07-29T02:00:14;101530.00;;;14.41;92.29
59513;BME280;45330;51.634;5.562;2022-07-29T02:02:42;101533.53;;;14.37;93.32
59513;BME280;45330;51.634;5.562;2022-07-29T02:05:10;101501.47;;;14.13;93.89
59513;BME280;45330;51.634;5.562;2022-07-29T02:07:40;101522.41;;;14.16;95.01
59513;BME280;45330;51.634;5.562;2022-07-29T02:10:06;101519.88;;;14.07;96.07
59513;BME280;45330;51.634;5.562;2022-07-29T02:12:32;101520.75;;;14.06;100.00
59513;BME280;45330;51.634;5.562;2022-07-29T02:15:00;101515.50;;;14.06;99.14
59513;BME280;45330;51.634;5.562;2022-07-29T02:17:31;101520.69;;;14.14;99.09
59513;BME280;45330;51.634;5.562;2022-07-29T02:19:59;101510.38;;;13.94;97.97
59513;BME280;45330;51.634;5.562;2022-07-29T02:22:26;101508.59;;;14.00;96.55
59513;BME280;45330;51.634;5.562;2022-07-29T02:24:55;101502.56;;;13.90;99.24
59513;BME280;45330;51.634;5.562;2022-07-29T02:27:22;101475.63;;;13.81;100.00
59513;BME280;45330;51.634;5.562;2022-07-29T02:29:49;101489.56;;;13.84;100.00
59513;BME280;45330;51.634;5.562;2022-07-29T02:32:17;101486.91;;;13.89;99.06
59513;BME280;45330;51.634;5.562;2022-07-29T02:34:43;101502.56;;;13.90;99.56
59513;BME280;45330;51.634;5.562;2022-07-29T02:37:11;101500.88;;;13.89;99.90
59513;BME280;45330;51.634;5.562;2022-07-29T02:39:37;101486.97;;;13.81;99.55
59513;BME280;45330;51.634;5.562;2022-07-29T02:42:07;101506.94;;;13.92;100.00
59513;BME280;45330;51.634;5.562;2022-07-29T02:44:35;101501.66;;;13.96;100.00
59513;BME280;45330;51.634;5.562;2022-07-29T02:47:11;101499.00;;;13.98;100.00
59513;BME280;45330;51.634;5.562;2022-07-29T02:49:59;101495.59;;;13.93;100.00
59513;BME280;45330;51.634;5.562;2022-07-29T02:52:37;101498.22;;;13.93;100.00
59513;BME280;45330;51.634;5.562;2022-07-29T02:55:19;101502.53;;;13.94;99.71
59513;BME280;45330;51.634;5.562;2022-07-29T02:57:53;101497.38;;;13.89;100.00
59513;BME280;45330;51.634;5.562;2022-07-29T03:00:20;101505.94;;;14.03;100.00
59513;BME280;45330;51.634;5.562;2022-07-29T03:02:50;101499.81;;;14.04;99.94
59513;BME280;45330;51.634;5.562;2022-07-29T03:05:18;101499.00;;;14.02;99.54
59513;BME280;45330;51.634;5.562;2022-07-29T03:07:55;101470.38;;;13.82;100.00
59513;BME280;45330;51.634;5.562;2022-07-29T03:10:21;101467.78;;;13.81;100.00
59513;BME280;45330;51.634;5.562;2022-07-29T03:12:47;101492.09;;;13.95;99.87
59513;BME280;45330;51.634;5.562;2022-07-29T03:15:13;101461.75;;;13.72;100.00
59513;BME280;45330;51.634;5.562;2022-07-29T03:17:39;101501.66;;;13.95;100.00
59513;BME280;45330;51.634;5.562;2022-07-29T03:20:07;101498.22;;;13.93;100.00
59513;BME280;45330;51.634;5.562;2022-07-29T03:22:39;101488.69;;;13.82;100.00
59513;BME280;45330;51.634;5.562;2022-07-29T03:25:11;101511.25;;;13.96;100.00
59513;BME280;45330;51.634;5.562;2022-07-29T03:27:37;101488.69;;;13.85;99.94
59513;BME280;45330;51.634;5.562;2022-07-29T03:30:03;101511.25;;;13.97;100.00
59513;BME280;45330;51.634;5.562;2022-07-29T03:32:29;101511.16;;;14.03;100.00
59513;BME280;45330;51.634;5.562;2022-07-29T03:34:54;101499.81;;;14.04;99.74
59513;BME280;45330;51.634;5.562;2022-07-29T03:37:20;101505.00;;;14.12;99.24
59513;BME280;45330;51.634;5.562;2022-07-29T03:39:45;101511.91;;;14.19;99.23
59513;BME280;45330;51.634;5.562;2022-07-29T03:42:15;101511.88;;;14.22;98.51
59513;BME280;45330;51.634;5.562;2022-07-29T03:44:43;101489.31;;;14.09;98.39
59513;BME280;45330;51.634;5.562;2022-07-29T03:47:10;101514.47;;;14.22;98.40
59513;BME280;45330;51.634;5.562;2022-07-29T03:49:37;101500.63;;;14.13;98.99
59513;BME280;45330;51.634;5.562;2022-07-29T03:52:04;101511.91;;;14.19;98.90
59513;BME280;45330;51.634;5.562;2022-07-29T03:54:30;101515.34;;;14.21;98.02
59513;BME280;45330;51.634;5.562;2022-07-29T03:56:59;101509.31;;;14.16;98.80
59513;BME280;45330;51.634;5.562;2022-07-29T03:59:26;101529.31;;;14.23;100.00
59513;BME280;45330;51.634;5.562;2022-07-29T04:01:52;101511.13;;;14.10;98.98
59513;BME280;45330;51.634;5.562;2022-07-29T04:04:19;101506.72;;;14.13;100.00
59513;BME280;45330;51.634;5.562;2022-07-29T04:06:46;101527.50;;;14.29;99.20
59513;BME280;45330;51.634;5.562;2022-07-29T04:09:12;101518.81;;;14.25;98.86
59513;BME280;45330;51.634;5.562;2022-07-29T04:11:41;101498.84;;;14.16;98.40
59513;BME280;45330;51.634;5.562;2022-07-29T04:14:06;101517.94;;;14.28;98.09
59513;BME280;45330;51.634;5.562;2022-07-29T04:16:32;101500.53;;;14.19;98.09
59513;BME280;45330;51.634;5.562;2022-07-29T04:18:58;101506.50;;;14.35;97.82
59513;BME280;45330;51.634;5.562;2022-07-29T04:21:24;101509.13;;;14.35;97.75
59513;BME280;45330;51.634;5.562;2022-07-29T04:23:49;101508.28;;;14.31;98.06
59513;BME280;45330;51.634;5.562;2022-07-29T04:26:16;101509.16;;;14.32;98.06
59513;BME280;45330;51.634;5.562;2022-07-29T04:28:41;101516.97;;;14.35;99.50
59513;BME280;45330;51.634;5.562;2022-07-29T04:31:08;101518.72;;;14.33;97.88
59513;BME280;45330;51.634;5.562;2022-07-29T04:33:33;101494.34;;;14.29;97.38
59513;BME280;45330;51.634;5.562;2022-07-29T04:35:59;101488.31;;;14.22;98.12
59513;BME280;45330;51.634;5.562;2022-07-29T04:38:24;101512.59;;;14.35;98.50
59513;BME280;45330;51.634;5.562;2022-07-29T04:40:49;101517.78;;;14.40;98.00
59513;BME280;45330;51.634;5.562;2022-07-29T04:43:15;101493.53;;;14.24;98.14
59513;BME280;45330;51.634;5.562;2022-07-29T04:45:41;101523.03;;;14.41;98.17
59513;BME280;45330;51.634;5.562;2022-07-29T04:48:06;101510.88;;;14.33;97.34
59513;BME280;45330;51.634;5.562;2022-07-29T04:50:32;101518.69;;;14.36;99.43
59513;BME280;45330;51.634;5.562;2022-07-29T04:52:57;101538.69;;;14.45;98.02
59513;BME280;45330;51.634;5.562;2022-07-29T04:55:23;101526.56;;;14.34;97.90
59513;BME280;45330;51.634;5.562;2022-07-29T04:57:48;101549.09;;;14.51;97.72
59513;BME280;45330;51.634;5.562;2022-07-29T05:00:14;101534.31;;;14.44;97.31
59513;BME280;45330;51.634;5.562;2022-07-29T05:02:39;101529.16;;;14.36;97.81
59513;BME280;45330;51.634;5.562;2022-07-29T05:05:05;101538.72;;;14.40;97.06
59513;BME280;45330;51.634;5.562;2022-07-29T05:07:30;101543.97;;;14.38;97.63
59513;BME280;45330;51.634;5.562;2022-07-29T05:09:56;101551.81;;;14.43;98.01
59513;BME280;45330;51.634;5.562;2022-07-29T05:12:23;101550.94;;;14.39;97.94
59513;BME280;45330;51.634;5.562;2022-07-29T05:14:48;101549.28;;;14.32;97.98
59513;BME280;45330;51.634;5.562;2022-07-29T05:17:14;101555.34;;;14.34;98.26
59513;BME280;45330;51.634;5.562;2022-07-29T05:19:39;101559.72;;;14.35;98.54
59513;BME280;45330;51.634;5.562;2022-07-29T05:22:04;101535.41;;;14.22;98.54
59513;BME280;45330;51.634;5.562;2022-07-29T05:24:30;101555.38;;;14.33;98.40
59513;BME280;45330;51.634;5.562;2022-07-29T05:26:56;101536.25;;;14.28;98.88
59513;BME280;45330;51.634;5.562;2022-07-29T05:29:21;101554.50;;;14.34;98.66
59513;BME280;45330;51.634;5.562;2022-07-29T05:31:46;101560.59;;;14.37;98.91
59513;BME280;45330;51.634;5.562;2022-07-29T05:34:12;101555.34;;;14.39;97.71
59513;BME280;45330;51.634;5.562;2022-07-29T05:36:37;101568.31;;;14.48;98.08
59513;BME280;45330;51.634;5.562;2022-07-29T05:39:02;101560.59;;;14.37;98.04
59513;BME280;45330;51.634;5.562;2022-07-29T05:41:31;101570.91;;;14.53;98.40
59513;BME280;45330;51.634;5.562;2022-07-29T05:43:57;101572.63;;;14.52;96.54
59513;BME280;45330;51.634;5.562;2022-07-29T05:46:23;101562.25;;;14.45;97.08
59513;BME280;45330;51.634;5.562;2022-07-29T05:48:49;101542.25;;;14.37;96.14
59513;BME280;45330;51.634;5.562;2022-07-29T05:51:14;101558.63;;;14.56;96.77
59513;BME280;45330;51.634;5.562;2022-07-29T05:53:39;101575.94;;;14.73;96.64
59513;BME280;45330;51.634;5.562;2022-07-29T05:56:05;101568.84;;;14.83;95.38
59513;BME280;45330;51.634;5.562;2022-07-29T05:58:31;101563.56;;;14.84;95.04
59513;BME280;45330;51.634;5.562;2022-07-29T06:00:56;101572.16;;;14.96;94.80
59513;BME280;45330;51.634;5.562;2022-07-29T06:03:25;101573.00;;;15.01;94.29
59513;BME280;45330;51.634;5.562;2022-07-29T06:05:50;101580.75;;;15.07;94.02
59513;BME280;45330;51.634;5.562;2022-07-29T06:08:15;101581.50;;;15.17;93.18
59513;BME280;45330;51.634;5.562;2022-07-29T06:10:42;101577.16;;;15.14;91.92
59513;BME280;45330;51.634;5.562;2022-07-29T06:13:07;101577.31;;;15.05;92.92
59513;BME280;45330;51.634;5.562;2022-07-29T06:15:33;101578.03;;;15.16;92.75
59513;BME280;45330;51.634;5.562;2022-07-29T06:17:58;101560.75;;;15.01;90.86
59513;BME280;45330;51.634;5.562;2022-07-29T06:20:23;101567.53;;;15.18;91.24
59513;BME280;45330;51.634;5.562;2022-07-29T06:22:49;101570.75;;;15.35;90.95
59513;BME280;45330;51.634;5.562;2022-07-29T06:25:14;101570.69;;;15.40;88.67
59513;BME280;45330;51.634;5.562;2022-07-29T06:27:39;101540.38;;;15.22;88.29
59513;BME280;45330;51.634;5.562;2022-07-29T06:30:05;101575.81;;;15.49;87.50
59513;BME280;45330;51.634;5.562;2022-07-29T06:32:33;101569.72;;;15.49;87.65
59513;BME280;45330;51.634;5.562;2022-07-29T06:34:58;101568.78;;;15.53;86.95
59513;BME280;45330;51.634;5.562;2022-07-29T06:37:23;101558.91;;;15.69;87.39
59513;BME280;45330;51.634;5.562;2022-07-29T06:39:49;101573.59;;;15.81;86.03
59513;BME280;45330;51.634;5.562;2022-07-29T06:42:34;101545.69;;;15.73;86.46
59513;BME280;45330;51.634;5.562;2022-07-29T06:44:59;101570.59;;;16.04;87.16
59513;BME280;45330;51.634;5.562;2022-07-29T06:47:25;101575.56;;;16.21;85.57
59513;BME280;45330;51.634;5.562;2022-07-29T06:49:50;101577.78;;;16.42;84.82
59513;BME280;45330;51.634;5.562;2022-07-29T06:52:15;101573.25;;;16.51;83.81
59513;BME280;45330;51.634;5.562;2022-07-29T06:54:41;101558.38;;;16.51;83.46
59513;BME280;45330;51.634;5.562;2022-07-29T06:57:13;101563.25;;;16.70;82.45
59513;BME280;45330;51.634;5.562;2022-07-29T06:59:38;101555.13;;;16.82;81.57
59513;BME280;45330;51.634;5.562;2022-07-29T07:02:04;101579.81;;;17.19;80.52
59513;BME280;45330;51.634;5.562;2022-07-29T07:04:29;101556.13;;;17.17;79.40
59513;BME280;45330;51.634;5.562;2022-07-29T07:06:54;101574.19;;;17.34;78.31
59513;BME280;45330;51.634;5.562;2022-07-29T07:09:20;101560.34;;;17.26;77.31
59513;BME280;45330;51.634;5.562;2022-07-29T07:11:46;101582.41;;;17.20;77.36
59513;BME280;45330;51.634;5.562;2022-07-29T07:14:11;101561.34;;;17.20;78.21
59513;BME280;45330;51.634;5.562;2022-07-29T07:16:37;101563.13;;;17.18;77.88
59513;BME280;45330;51.634;5.562;2022-07-29T07:19:02;101574.50;;;17.20;78.24
59513;BME280;45330;51.634;5.562;2022-07-29T07:21:28;101571.53;;;17.36;77.92
59513;BME280;45330;51.634;5.562;2022-07-29T07:23:54;101584.56;;;17.40;77.40
59513;BME280;45330;51.634;5.562;2022-07-29T07:26:19;101575.09;;;17.33;77.77
59513;BME280;45330;51.634;5.562;2022-07-29T07:28:44;101567.31;;;17.27;78.16
59513;BME280;45330;51.634;5.562;2022-07-29T07:31:10;101581.69;;;17.51;78.64
59513;BME280;45330;51.634;5.562;2022-07-29T07:33:36;101572.84;;;17.54;78.26
59513;BME280;45330;51.634;5.562;2022-07-29T07:36:02;101573.91;;;17.46;77.69
59513;BME280;45330;51.634;5.562;2022-07-29T07:38:27;101586.34;;;17.40;78.65
59513;BME280;45330;51.634;5.562;2022-07-29T07:40:52;101565.56;;;17.27;78.48
59513;BME280;45330;51.634;5.562;2022-07-29T07:43:18;101588.41;;;17.25;79.20
59513;BME280;45330;51.634;5.562;2022-07-29T07:45:43;101581.53;;;17.18;79.00
59513;BME280;45330;51.634;5.562;2022-07-29T07:48:08;101592.09;;;17.17;79.50
59513;BME280;45330;51.634;5.562;2022-07-29T07:50:35;101564.28;;;17.06;79.25
59513;BME280;45330;51.634;5.562;2022-07-29T07:53:01;101585.19;;;17.12;79.13
59513;BME280;45330;51.634;5.562;2022-07-29T07:55:27;101589.50;;;17.15;79.02
59513;BME280;45330;51.634;5.562;2022-07-29T07:57:54;101590.31;;;17.19;79.59
59513;BME280;45330;51.634;5.562;2022-07-29T08:00:19;101572.81;;;17.18;79.24
59513;BME280;45330;51.634;5.562;2022-07-29T08:02:45;101583.72;;;17.40;78.10
59513;BME280;45330;51.634;5.562;2022-07-29T08:05:11;101581.22;;;17.34;77.94
59513;BME280;45330;51.634;5.562;2022-07-29T08:07:38;101581.09;;;17.40;77.08
59513;BME280;45330;51.634;5.562;2022-07-29T08:10:04;101608.41;;;17.72;76.98
59513;BME280;45330;51.634;5.562;2022-07-29T08:12:29;101609.94;;;17.82;75.58
59513;BME280;45330;51.634;5.562;2022-07-29T08:14:55;101611.41;;;17.94;74.93
59513;BME280;45330;51.634;5.562;2022-07-29T08:17:20;101610.78;;;18.20;75.58
59513;BME280;45330;51.634;5.562;2022-07-29T08:19:45;101597.59;;;18.20;73.40
59513;BME280;45330;51.634;5.562;2022-07-29T08:22:13;101595.63;;;18.28;73.30
59513;BME280;45330;51.634;5.562;2022-07-29T08:24:39;101617.34;;;18.37;72.92
59513;BME280;45330;51.634;5.562;2022-07-29T08:27:21;101607.00;;;18.30;72.45
59513;BME280;45330;51.634;5.562;2022-07-29T08:29:47;101597.34;;;18.29;72.61
59513;BME280;45330;51.634;5.562;2022-07-29T08:32:13;101592.03;;;18.31;73.06
59513;BME280;45330;51.634;5.562;2022-07-29T08:34:38;101616.31;;;18.44;73.14
59513;BME280;45330;51.634;5.562;2022-07-29T08:37:03;101611.47;;;18.60;72.19
59513;BME280;45330;51.634;5.562;2022-07-29T08:39:29;101594.81;;;18.59;71.24
59513;BME280;45330;51.634;5.562;2022-07-29T08:41:55;101608.41;;;18.75;72.43
59513;BME280;45330;51.634;5.562;2022-07-29T08:44:20;101606.31;;;18.88;71.36
59513;BME280;45330;51.634;5.562;2022-07-29T08:46:47;101597.72;;;18.80;71.28
59513;BME280;45330;51.634;5.562;2022-07-29T08:49:13;101597.63;;;18.83;71.19
59513;BME280;45330;51.634;5.562;2022-07-29T08:51:40;101587.22;;;18.78;70.21
59513;BME280;45330;51.634;5.562;2022-07-29T08:54:06;101597.06;;;19.05;71.15
59513;BME280;45330;51.634;5.562;2022-07-29T08:56:33;101586.00;;;19.22;72.20
59513;BME280;45330;51.634;5.562;2022-07-29T08:59:03;101603.38;;;19.29;69.83
59513;BME280;45330;51.634;5.562;2022-07-29T09:01:33;101590.59;;;19.43;70.14
59513;BME280;45330;51.634;5.562;2022-07-29T09:03:58;101600.53;;;19.63;68.55
59513;BME280;45330;51.634;5.562;2022-07-29T09:06:31;101606.94;;;19.84;66.02
59513;BME280;45330;51.634;5.562;2022-07-29T09:08:59;101598.00;;;19.88;65.78
59513;BME280;45330;51.634;5.562;2022-07-29T09:11:25;101594.25;;;19.96;64.94
59513;BME280;45330;51.634;5.562;2022-07-29T09:13:50;101586.66;;;20.12;66.11
59513;BME280;45330;51.634;5.562;2022-07-29T09:16:16;101584.94;;;20.11;64.55
59513;BME280;45330;51.634;5.562;2022-07-29T09:18:43;101570.44;;;19.97;64.64
59513;BME280;45330;51.634;5.562;2022-07-29T09:21:14;101590.56;;;20.27;65.89
59513;BME280;45330;51.634;5.562;2022-07-29T09:24:00;101600.63;;;20.40;64.73
59513;BME280;45330;51.634;5.562;2022-07-29T09:26:30;101596.22;;;20.41;64.13
59513;BME280;45330;51.634;5.562;2022-07-29T09:28:57;101592.84;;;20.61;64.76
59513;BME280;45330;51.634;5.562;2022-07-29T09:31:33;101597.03;;;20.68;64.33
59513;BME280;45330;51.634;5.562;2022-07-29T09:33:59;101608.38;;;20.72;62.29
59513;BME280;45330;51.634;5.562;2022-07-29T09:36:25;101608.78;;;20.60;61.15
59513;BME280;45330;51.634;5.562;2022-07-29T09:38:58;101591.53;;;20.49;61.75
59513;BME280;45330;51.634;5.562;2022-07-29T09:41:25;101592.16;;;20.56;62.44
59513;BME280;45330;51.634;5.562;2022-07-29T09:43:57;101610.91;;;20.75;61.83
59513;BME280;45330;51.634;5.562;2022-07-29T09:46:23;101605.31;;;20.83;62.32
59513;BME280;45330;51.634;5.562;2022-07-29T09:49:08;101612.28;;;21.09;62.98
59513;BME280;45330;51.634;5.562;2022-07-29T09:51:35;101615.75;;;21.11;59.44
59513;BME280;45330;51.634;5.562;2022-07-29T09:54:01;101609.81;;;21.28;59.46
59513;BME280;45330;51.634;5.562;2022-07-29T09:56:42;101617.50;;;21.34;58.84
59513;BME280;45330;51.634;5.562;2022-07-29T09:59:08;101607.75;;;21.35;57.84
59513;BME280;45330;51.634;5.562;2022-07-29T10:01:34;101612.34;;;21.75;57.28
59513;BME280;45330;51.634;5.562;2022-07-29T10:04:01;101612.31;;;22.20;55.79
59513;BME280;45330;51.634;5.562;2022-07-29T10:06:27;101612.72;;;22.52;56.27
59513;BME280;45330;51.634;5.562;2022-07-29T10:08:53;101614.25;;;22.57;54.87
59513;BME280;45330;51.634;5.562;2022-07-29T10:11:18;101604.19;;;22.45;54.69
59513;BME280;45330;51.634;5.562;2022-07-29T10:13:46;101593.81;;;22.18;53.65
59513;BME280;45330;51.634;5.562;2022-07-29T10:16:12;101584.34;;;22.13;54.26
59513;BME280;45330;51.634;5.562;2022-07-29T10:18:42;101600.72;;;22.22;57.00
59513;BME280;45330;51.634;5.562;2022-07-29T10:21:09;101590.81;;;22.05;55.97
59513;BME280;45330;51.634;5.562;2022-07-29T10:23:35;101582.81;;;22.07;56.86
59513;BME280;45330;51.634;5.562;2022-07-29T10:26:02;101603.94;;;22.08;56.80
59513;BME280;45330;51.634;5.562;2022-07-29T10:28:30;101588.97;;;22.07;56.82
59513;BME280;45330;51.634;5.562;2022-07-29T10:31:01;101597.84;;;22.27;56.88
59513;BME280;45330;51.634;5.562;2022-07-29T10:42:21;101580.53;;;22.40;55.04
59513;BME280;45330;51.634;5.562;2022-07-29T10:44:49;101598.94;;;22.43;53.90
59513;BME280;45330;51.634;5.562;2022-07-29T10:47:26;101596.47;;;22.39;54.92
59513;BME280;45330;51.634;5.562;2022-07-29T10:49:56;101592.06;;;22.39;55.01
59513;BME280;45330;51.634;5.562;2022-07-29T10:52:22;101579.34;;;22.25;53.44
59513;BME280;45330;51.634;5.562;2022-07-29T10:54:50;101584.19;;;22.16;53.10
59513;BME280;45330;51.634;5.562;2022-07-29T10:57:29;101593.03;;;22.37;54.56
59513;BME280;45330;51.634;5.562;2022-07-29T11:05:03;101579.03;;;22.54;51.74
59513;BME280;45330;51.634;5.562;2022-07-29T11:07:29;101591.22;;;22.58;51.17
59513;BME280;45330;51.634;5.562;2022-07-29T11:15:04;101576.97;;;22.79;50.93
59513;BME280;45330;51.634;5.562;2022-07-29T11:31:39;101587.41;;;23.03;48.95
59513;BME280;45330;51.634;5.562;2022-07-29T11:34:28;101583.28;;;23.17;50.73
59513;BME280;45330;51.634;5.562;2022-07-29T11:39:39;101585.19;;;23.13;48.71
59513;BME280;45330;51.634;5.562;2022-07-29T11:47:26;101573.44;;;23.19;48.71
59513;BME280;45330;51.634;5.562;2022-07-29T11:49:53;101592.00;;;23.38;49.56
59513;BME280;45330;51.634;5.562;2022-07-29T11:52:19;101577.22;;;23.32;48.69
59513;BME280;45330;51.634;5.562;2022-07-29T11:54:47;101588.97;;;23.45;49.53
59513;BME280;45330;51.634;5.562;2022-07-29T11:57:16;101583.63;;;23.64;49.42
59513;BME280;45330;51.634;5.562;2022-07-29T11:59:43;101591.38;;;23.69;47.18
59513;BME280;45330;51.634;5.562;2022-07-29T12:02:09;101590.50;;;23.69;48.30
59513;BME280;45330;51.634;5.562;2022-07-29T12:04:54;101590.19;;;23.57;47.18
59513;BME280;45330;51.634;5.562;2022-07-29T12:07:32;101576.50;;;23.48;46.61
59513;BME280;45330;51.634;5.562;2022-07-29T12:09:57;101581.34;;;23.57;46.53
59513;BME280;45330;51.634;5.562;2022-07-29T12:12:23;101574.00;;;23.62;45.49
59513;BME280;45330;51.634;5.562;2022-07-29T12:14:49;101589.88;;;23.81;45.06
59513;BME280;45330;51.634;5.562;2022-07-29T12:17:32;101586.91;;;23.70;45.63
59513;BME280;45330;51.634;5.562;2022-07-29T12:19:59;101580.09;;;23.64;44.19
59513;BME280;45330;51.634;5.562;2022-07-29T12:24:51;101587.38;;;23.78;45.76
59513;BME280;45330;51.634;5.562;2022-07-29T12:27:17;101589.03;;;23.80;44.65
59513;BME280;45330;51.634;5.562;2022-07-29T12:29:43;101591.19;;;23.91;45.45
59513;BME280;45330;51.634;5.562;2022-07-29T12:32:08;101579.78;;;24.07;45.58
59513;BME280;45330;51.634;5.562;2022-07-29T12:34:34;101590.16;;;24.29;45.89
59513;BME280;45330;51.634;5.562;2022-07-29T12:37:00;101578.34;;;24.68;45.90
59513;BME280;45330;51.634;5.562;2022-07-29T12:39:26;101582.09;;;24.81;44.94
59513;BME280;45330;51.634;5.562;2022-07-29T12:41:53;101576.34;;;24.56;43.09
59513;BME280;45330;51.634;5.562;2022-07-29T12:44:18;101563.41;;;24.32;44.12
59513;BME280;45330;51.634;5.562;2022-07-29T12:46:44;101567.75;;;24.33;43.51
59513;BME280;45330;51.634;5.562;2022-07-29T12:49:21;101575.63;;;24.52;44.91
59513;BME280;45330;51.634;5.562;2022-07-29T12:51:46;101570.53;;;24.65;44.06
59513;BME280;45330;51.634;5.562;2022-07-29T12:54:13;101577.44;;;24.69;42.95
59513;BME280;45330;51.634;5.562;2022-07-29T12:56:40;101570.38;;;24.68;42.31
59513;BME280;45330;51.634;5.562;2022-07-29T12:59:17;101565.94;;;24.85;43.31
59513;BME280;45330;51.634;5.562;2022-07-29T13:01:43;101572.47;;;24.95;42.05
59513;BME280;45330;51.634;5.562;2022-07-29T13:04:09;101568.88;;;24.96;42.63
59513;BME280;45330;51.634;5.562;2022-07-29T13:09:16;101576.88;;;25.12;42.87
59513;BME280;45330;51.634;5.562;2022-07-29T13:11:43;101573.19;;;25.30;41.57
59513;BME280;45330;51.634;5.562;2022-07-29T13:14:14;101560.78;;;25.29;40.45
59513;BME280;45330;51.634;5.562;2022-07-29T13:17:04;101563.22;;;25.34;41.88
59513;BME280;45330;51.634;5.562;2022-07-29T13:19:47;101559.81;;;25.32;41.41
59513;BME280;45330;51.634;5.562;2022-07-29T13:22:15;101570.28;;;25.35;40.40
59513;BME280;45330;51.634;5.562;2022-07-29T13:27:20;101566.88;;;25.63;40.87
59513;BME280;45330;51.634;5.562;2022-07-29T13:29:46;101573.13;;;25.78;40.51
59513;BME280;45330;51.634;5.562;2022-07-29T13:32:12;101574.06;;;25.77;40.46
59513;BME280;45330;51.634;5.562;2022-07-29T13:34:38;101576.84;;;25.90;40.42
59513;BME280;45330;51.634;5.562;2022-07-29T13:37:04;101566.69;;;25.97;40.57
59513;BME280;45330;51.634;5.562;2022-07-29T13:39:29;101562.00;;;26.02;40.20
59513;BME280;45330;51.634;5.562;2022-07-29T13:41:55;101571.22;;;26.11;39.46
59513;BME280;45330;51.634;5.562;2022-07-29T13:44:21;101577.81;;;26.19;41.02
59513;BME280;45330;51.634;5.562;2022-07-29T13:46:46;101573.06;;;26.25;39.03
59513;BME280;45330;51.634;5.562;2022-07-29T13:49:11;101548.56;;;26.04;38.14
59513;BME280;45330;51.634;5.562;2022-07-29T13:51:37;101552.56;;;25.95;39.38